Time;durP1;ratioP1;P1;durP2;ratioP2;P2;SDS_P1;SDS_P2;PMS_P1;PMS_P2;Temp;Humidity;BMP_temperature;BMP_pressure;BME280_temperature;BME280_humidity;BME280_pressure;Samples;Min_cycle;Max_cycle;Signal;HPM_P1;HPM_P2
2022/01/29 00:01:10;;;;;;;51.53;23.88;;;;;;;;;;5041586;28;20065;-69
2022/01/29 00:03:37;;;;;;;63.08;29.63;;;;;;;;;;5042033;28;20052;-69
2022/01/29 00:06:03;;;;;;;62.95;30.13;;;;;;;;;;5041267;28;20647;-69
2022/01/29 00:08:29;;;;;;;63.42;29.30;;;;;;;;;;5042098;28;20049;-70
2022/01/29 00:11:03;;;;;;;65.88;30.23;;;;;;;;;;5039783;28;20049;-69
2022/01/29 00:13:29;;;;;;;57.25;27.88;;;;;;;;;;5041782;28;20131;-69
2022/01/29 00:15:56;;;;;;;58.40;26.40;;;;;;;;;;5041187;28;20068;-69
2022/01/29 00:18:22;;;;;;;62.92;28.63;;;;;;;;;;5042250;28;20060;-69
2022/01/29 00:20:48;;;;;;;65.40;30.38;;;;;;;;;;5040712;28;20049;-69
2022/01/29 00:23:14;;;;;;;63.13;28.88;;;;;;;;;;5042232;28;20045;-69
2022/01/29 00:25:41;;;;;;;69.93;32.20;;;;;;;;;;5041638;28;20045;-69
2022/01/29 00:28:07;;;;;;;67.75;30.25;;;;;;;;;;5041182;28;20056;-69
2022/01/29 00:30:41;;;;;;;67.18;29.92;;;;;;;;;;5040966;28;20053;-70
2022/01/29 00:33:08;;;;;;;71.28;31.45;;;;;;;;;;5041065;28;20382;-69
2022/01/29 00:35:34;;;;;;;67.78;31.45;;;;;;;;;;5040507;28;20055;-69
2022/01/29 00:38:01;;;;;;;73.90;34.42;;;;;;;;;;5040973;28;20052;-70
2022/01/29 00:40:28;;;;;;;71.10;32.72;;;;;;;;;;5041907;28;20052;-69
2022/01/29 00:42:54;;;;;;;74.35;32.72;;;;;;;;;;5040498;28;20756;-69
2022/01/29 00:45:20;;;;;;;72.35;33.08;;;;;;;;;;5040921;28;20049;-69
2022/01/29 00:47:46;;;;;;;84.50;34.03;;;;;;;;;;5041236;28;20079;-69
2022/01/29 00:50:13;;;;;;;65.68;29.83;;;;;;;;;;5041443;28;20057;-69
2022/01/29 00:52:39;;;;;;;70.43;31.90;;;;;;;;;;5040608;28;20048;-69
2022/01/29 00:55:06;;;;;;;72.60;31.00;;;;;;;;;;5041104;28;20060;-70
2022/01/29 00:57:35;;;;;;;79.55;32.88;;;;;;;;;;5040878;28;20111;-70
2022/01/29 01:00:02;;;;;;;67.05;31.73;;;;;;;;;;5040807;28;20045;-69
2022/01/29 01:02:28;;;;;;;63.33;30.95;;;;;;;;;;5039179;28;20053;-70
2022/01/29 01:04:55;;;;;;;68.13;31.15;;;;;;;;;;5033454;28;20168;-70
2022/01/29 01:07:21;;;;;;;71.38;31.65;;;;;;;;;;5037401;28;20053;-70
2022/01/29 01:09:47;;;;;;;75.32;32.00;;;;;;;;;;5038661;28;20063;-70
2022/01/29 01:12:13;;;;;;;77.40;33.13;;;;;;;;;;5039770;28;20074;-70
2022/01/29 01:14:40;;;;;;;66.38;32.40;;;;;;;;;;5039199;28;20048;-70
2022/01/29 01:17:06;;;;;;;76.28;36.70;;;;;;;;;;5039890;28;20136;-70
2022/01/29 01:19:33;;;;;;;80.53;33.10;;;;;;;;;;5039389;28;20488;-70
2022/01/29 01:21:59;;;;;;;68.13;30.35;;;;;;;;;;5039627;28;20045;-70
2022/01/29 01:24:26;;;;;;;71.30;30.38;;;;;;;;;;5030960;28;20136;-70
2022/01/29 01:26:52;;;;;;;74.35;31.63;;;;;;;;;;5020620;28;20049;-70
2022/01/29 01:29:19;;;;;;;70.47;30.85;;;;;;;;;;5021133;28;20069;-70
2022/01/29 01:31:46;;;;;;;64.57;32.30;;;;;;;;;;5031903;28;20060;-70
2022/01/29 01:34:13;;;;;;;66.05;30.08;;;;;;;;;;5039767;28;20045;-70
2022/01/29 01:36:46;;;;;;;70.80;30.90;;;;;;;;;;5039999;28;20057;-69
2022/01/29 01:39:17;;;;;;;76.53;35.70;;;;;;;;;;5040037;28;20053;-70
2022/01/29 01:41:53;;;;;;;65.68;31.25;;;;;;;;;;5039401;28;20164;-70
2022/01/29 01:44:20;;;;;;;65.68;31.98;;;;;;;;;;5039639;28;20063;-70
2022/01/29 01:46:46;;;;;;;63.88;31.13;;;;;;;;;;5039457;28;20053;-69
2022/01/29 01:49:14;;;;;;;65.35;29.02;;;;;;;;;;5038367;28;20422;-70
2022/01/29 01:51:41;;;;;;;65.20;29.88;;;;;;;;;;5039031;28;20056;-69
2022/01/29 01:54:07;;;;;;;73.85;31.17;;;;;;;;;;5040084;28;20067;-70
2022/01/29 01:56:34;;;;;;;75.50;32.97;;;;;;;;;;5038922;28;20063;-70
2022/01/29 01:59:00;;;;;;;65.63;31.90;;;;;;;;;;5039988;28;20079;-70
2022/01/29 02:01:27;;;;;;;67.95;30.38;;;;;;;;;;5039276;28;20068;-70
2022/01/29 02:03:54;;;;;;;64.28;30.50;;;;;;;;;;5038869;28;20084;-70
2022/01/29 02:06:20;;;;;;;60.20;28.17;;;;;;;;;;5032163;28;20045;-70
2022/01/29 02:08:47;;;;;;;60.75;30.48;;;;;;;;;;5018601;28;20674;-69
2022/01/29 02:11:13;;;;;;;68.15;31.08;;;;;;;;;;5017693;28;20061;-69
2022/01/29 02:13:40;;;;;;;60.25;30.75;;;;;;;;;;5019252;28;20057;-69
2022/01/29 02:16:07;;;;;;;68.13;31.85;;;;;;;;;;5020542;28;20049;-70
2022/01/29 02:18:34;;;;;;;72.70;32.65;;;;;;;;;;5038365;28;20429;-70
2022/01/29 02:21:02;;;;;;;67.03;32.37;;;;;;;;;;5038844;28;20060;-70
2022/01/29 02:23:28;;;;;;;72.78;32.25;;;;;;;;;;5039717;28;20048;-70
2022/01/29 02:25:55;;;;;;;69.18;32.22;;;;;;;;;;5038779;28;20059;-70
2022/01/29 02:28:22;;;;;;;70.40;33.83;;;;;;;;;;5038932;28;20131;-70
2022/01/29 02:30:50;;;;;;;68.40;32.75;;;;;;;;;;5038452;28;20069;-70
2022/01/29 02:33:17;;;;;;;60.65;30.15;;;;;;;;;;5038644;28;20049;-70
2022/01/29 02:35:44;;;;;;;64.10;31.92;;;;;;;;;;5039249;28;20804;-70
2022/01/29 02:38:11;;;;;;;63.08;30.50;;;;;;;;;;5039549;28;20053;-71
2022/01/29 02:40:49;;;;;;;67.18;30.95;;;;;;;;;;5039950;28;20075;-70
2022/01/29 02:43:18;;;;;;;68.95;32.10;;;;;;;;;;5039681;28;20772;-70
2022/01/29 02:45:45;;;;;;;64.03;30.08;;;;;;;;;;5033566;28;20049;-71
2022/01/29 02:48:11;;;;;;;60.65;31.73;;;;;;;;;;5018688;28;20426;-71
2022/01/29 02:50:38;;;;;;;59.15;29.23;;;;;;;;;;5024280;28;20064;-71
2022/01/29 02:53:05;;;;;;;60.55;29.67;;;;;;;;;;5038829;28;20843;-71
2022/01/29 02:55:32;;;;;;;59.92;30.38;;;;;;;;;;5039163;28;20053;-69
2022/01/29 02:57:58;;;;;;;57.85;29.30;;;;;;;;;;5039092;28;20056;-70
2022/01/29 03:00:25;;;;;;;56.50;28.00;;;;;;;;;;5038944;28;20053;-71
2022/01/29 03:02:51;;;;;;;62.83;32.80;;;;;;;;;;5038160;28;20083;-70
2022/01/29 03:05:18;;;;;;;57.53;29.45;;;;;;;;;;5037172;28;20795;-71
2022/01/29 03:07:44;;;;;;;54.47;28.48;;;;;;;;;;5038042;28;20060;-71
2022/01/29 03:10:11;;;;;;;58.78;29.08;;;;;;;;;;5036435;28;20048;-71
2022/01/29 03:12:40;;;;;;;59.45;28.45;;;;;;;;;;5038279;28;20049;-72
2022/01/29 03:15:07;;;;;;;58.50;28.58;;;;;;;;;;5038228;28;20052;-72
2022/01/29 03:17:33;;;;;;;57.05;27.52;;;;;;;;;;5038290;28;20056;-71
2022/01/29 03:20:00;;;;;;;53.42;26.75;;;;;;;;;;5036942;28;20051;-71
2022/01/29 03:22:26;;;;;;;46.25;25.17;;;;;;;;;;5038127;28;20056;-71
2022/01/29 03:24:52;;;;;;;52.75;28.52;;;;;;;;;;5038159;28;20060;-71
2022/01/29 03:27:19;;;;;;;48.15;27.38;;;;;;;;;;5038039;28;20076;-71
2022/01/29 03:29:45;;;;;;;50.08;27.65;;;;;;;;;;5037362;28;20754;-71
2022/01/29 03:32:11;;;;;;;48.15;25.05;;;;;;;;;;5036689;28;20060;-72
2022/01/29 03:34:38;;;;;;;47.78;24.90;;;;;;;;;;5037382;28;20486;-72
2022/01/29 03:37:04;;;;;;;52.60;26.45;;;;;;;;;;5038021;28;20171;-71
2022/01/29 03:39:33;;;;;;;52.55;25.73;;;;;;;;;;5036629;28;20048;-71
2022/01/29 03:42:04;;;;;;;53.60;24.55;;;;;;;;;;5037225;28;20045;-72
2022/01/29 03:44:30;;;;;;;51.03;26.05;;;;;;;;;;5036098;28;20063;-72
2022/01/29 03:46:56;;;;;;;51.00;26.67;;;;;;;;;;5037487;28;20056;-71
2022/01/29 03:49:23;;;;;;;44.53;24.52;;;;;;;;;;5037437;28;20562;-71
2022/01/29 03:51:50;;;;;;;44.88;23.63;;;;;;;;;;5036965;28;20052;-71
2022/01/29 03:54:16;;;;;;;50.83;25.48;;;;;;;;;;5038075;28;20053;-72
2022/01/29 03:56:43;;;;;;;46.28;24.85;;;;;;;;;;5036977;28;20079;-72
2022/01/29 03:59:09;;;;;;;43.00;23.92;;;;;;;;;;5038632;28;20818;-72
2022/01/29 04:01:35;;;;;;;45.75;24.10;;;;;;;;;;5036749;28;20077;-72
2022/01/29 04:04:02;;;;;;;44.50;24.38;;;;;;;;;;5037273;28;20088;-72
2022/01/29 04:06:30;;;;;;;45.60;24.70;;;;;;;;;;5037917;28;20045;-72
2022/01/29 04:08:57;;;;;;;47.17;25.05;;;;;;;;;;5037034;28;20053;-72
2022/01/29 04:11:24;;;;;;;48.95;25.75;;;;;;;;;;5035933;28;20076;-71
2022/01/29 04:13:50;;;;;;;53.83;27.77;;;;;;;;;;5036571;28;20053;-71
2022/01/29 04:16:17;;;;;;;49.58;25.48;;;;;;;;;;5038015;28;20064;-71
2022/01/29 04:18:44;;;;;;;48.30;24.27;;;;;;;;;;5037915;28;20053;-71
2022/01/29 04:21:10;;;;;;;48.15;25.73;;;;;;;;;;5037019;28;20049;-72
2022/01/29 04:23:36;;;;;;;51.33;26.63;;;;;;;;;;5038371;28;20479;-71
2022/01/29 04:26:03;;;;;;;52.10;27.20;;;;;;;;;;5037531;28;20049;-71
2022/01/29 04:28:35;;;;;;;50.25;25.55;;;;;;;;;;5037717;28;20048;-71
2022/01/29 04:31:13;;;;;;;55.50;29.90;;;;;;;;;;5036842;28;20057;-71
2022/01/29 04:33:39;;;;;;;52.28;27.05;;;;;;;;;;5036866;28;20116;-71
2022/01/29 04:36:06;;;;;;;58.58;27.52;;;;;;;;;;5037910;28;20832;-71
2022/01/29 04:38:33;;;;;;;59.88;28.92;;;;;;;;;;5037921;28;20293;-71
2022/01/29 04:41:03;;;;;;;59.00;28.88;;;;;;;;;;5037168;28;20056;-70
2022/01/29 04:43:36;;;;;;;54.30;27.85;;;;;;;;;;5041084;28;20045;-70
2022/01/29 04:46:06;;;;;;;58.63;28.13;;;;;;;;;;5041207;28;20048;-70
2022/01/29 04:48:32;;;;;;;59.47;29.50;;;;;;;;;;5040666;28;20087;-70
2022/01/29 04:50:58;;;;;;;61.25;30.52;;;;;;;;;;5041177;28;20052;-70
2022/01/29 04:53:25;;;;;;;67.43;33.70;;;;;;;;;;5041713;28;20057;-69
2022/01/29 04:55:51;;;;;;;70.28;32.13;;;;;;;;;;5040142;28;20063;-68
2022/01/29 04:58:17;;;;;;;67.63;32.60;;;;;;;;;;5041552;28;20049;-69
2022/01/29 05:00:44;;;;;;;75.10;34.95;;;;;;;;;;5040475;28;20616;-69
2022/01/29 05:03:12;;;;;;;86.57;36.30;;;;;;;;;;5040564;28;20460;-71
2022/01/29 05:05:39;;;;;;;69.50;31.77;;;;;;;;;;5039691;28;20053;-69
2022/01/29 05:08:05;;;;;;;83.38;36.33;;;;;;;;;;5040875;28;20063;-69
2022/01/29 05:10:32;;;;;;;85.65;34.50;;;;;;;;;;5038445;28;20063;-69
2022/01/29 05:13:02;;;;;;;75.63;33.17;;;;;;;;;;5040461;28;20540;-70
2022/01/29 05:15:42;;;;;;;69.22;34.00;;;;;;;;;;5041164;28;20099;-71
2022/01/29 05:29:10;;;;;;;62.78;32.17;;;;;;;;;;5037421;28;20609;-71
2022/01/29 05:31:36;;;;;;;67.20;31.38;;;;;;;;;;5020141;28;20064;-71
2022/01/29 05:34:03;;;;;;;60.30;30.77;;;;;;;;;;5019991;28;20049;-71
2022/01/29 05:36:29;;;;;;;63.10;30.60;;;;;;;;;;5020451;28;20053;-71
2022/01/29 05:38:56;;;;;;;69.70;31.77;;;;;;;;;;5019103;28;20056;-72
2022/01/29 05:41:23;;;;;;;67.70;32.53;;;;;;;;;;5020477;28;20579;-71
2022/01/29 05:43:49;;;;;;;68.53;32.97;;;;;;;;;;5019917;28;20055;-71
2022/01/29 05:46:16;;;;;;;75.18;33.60;;;;;;;;;;5020148;28;20107;-71
2022/01/29 05:48:43;;;;;;;77.05;36.55;;;;;;;;;;5019632;28;20046;-71
2022/01/29 05:51:09;;;;;;;73.55;33.97;;;;;;;;;;5020072;28;20053;-71
2022/01/29 05:53:36;;;;;;;67.68;32.20;;;;;;;;;;5019427;28;20793;-70
2022/01/29 05:56:02;;;;;;;70.72;33.15;;;;;;;;;;5031616;28;20061;-70
2022/01/29 05:58:29;;;;;;;68.10;30.95;;;;;;;;;;5040381;28;20052;-70
2022/01/29 06:00:55;;;;;;;74.20;34.78;;;;;;;;;;5039062;28;20059;-71
2022/01/29 06:03:22;;;;;;;64.55;31.55;;;;;;;;;;5039851;28;20084;-71
2022/01/29 06:05:48;;;;;;;53.95;27.05;;;;;;;;;;5039467;28;20053;-70
2022/01/29 06:08:14;;;;;;;61.72;29.77;;;;;;;;;;5039490;28;20049;-71
2022/01/29 06:10:41;;;;;;;59.63;28.80;;;;;;;;;;5037407;28;20658;-71
2022/01/29 06:13:09;;;;;;;61.72;30.25;;;;;;;;;;5039214;28;20057;-71
2022/01/29 06:15:41;;;;;;;60.50;31.00;;;;;;;;;;5038632;28;20454;-71
2022/01/29 06:18:13;;;;;;;61.05;27.52;;;;;;;;;;5039026;28;20103;-71
2022/01/29 06:20:40;;;;;;;50.75;25.83;;;;;;;;;;5038246;28;20053;-71
2022/01/29 06:23:07;;;;;;;59.83;29.63;;;;;;;;;;5038154;28;20055;-71
2022/01/29 06:25:33;;;;;;;56.58;28.42;;;;;;;;;;5039444;28;20049;-71
2022/01/29 06:27:59;;;;;;;61.30;30.27;;;;;;;;;;5038393;28;20037;-71
2022/01/29 06:30:25;;;;;;;68.53;29.15;;;;;;;;;;5035370;28;20056;-71
2022/01/29 06:32:52;;;;;;;58.10;28.73;;;;;;;;;;5030024;28;20049;-71
2022/01/29 06:35:18;;;;;;;58.00;27.27;;;;;;;;;;5018212;28;20045;-71
2022/01/29 06:37:45;;;;;;;61.40;26.73;;;;;;;;;;5019657;28;20053;-70
2022/01/29 06:40:11;;;;;;;49.55;25.92;;;;;;;;;;5020577;28;20069;-71
2022/01/29 06:42:38;;;;;;;50.83;24.88;;;;;;;;;;5038389;28;20059;-71
2022/01/29 06:45:04;;;;;;;47.63;24.35;;;;;;;;;;5038802;28;20053;-70
2022/01/29 06:47:31;;;;;;;45.97;25.20;;;;;;;;;;5039027;28;20060;-71
2022/01/29 06:49:58;;;;;;;52.28;24.38;;;;;;;;;;5038525;28;20053;-71
2022/01/29 06:52:24;;;;;;;46.78;23.85;;;;;;;;;;5021871;28;20053;-71
2022/01/29 06:54:50;;;;;;;52.47;25.90;;;;;;;;;;5030613;28;20049;-71
2022/01/29 06:57:17;;;;;;;46.92;25.30;;;;;;;;;;5023280;28;20061;-71
2022/01/29 06:59:43;;;;;;;52.58;25.75;;;;;;;;;;5020218;28;20049;-70
2022/01/29 07:02:09;;;;;;;41.65;23.15;;;;;;;;;;5017960;28;20058;-71
2022/01/29 07:04:36;;;;;;;40.67;21.95;;;;;;;;;;5019155;28;20049;-71
2022/01/29 07:07:02;;;;;;;46.00;23.27;;;;;;;;;;5020532;28;20052;-71
2022/01/29 07:09:28;;;;;;;43.58;21.42;;;;;;;;;;5018104;28;20154;-70
2022/01/29 07:11:59;;;;;;;42.47;22.00;;;;;;;;;;5033023;28;20064;-70
2022/01/29 07:14:25;;;;;;;41.33;20.40;;;;;;;;;;5039074;28;20053;-71
2022/01/29 07:16:51;;;;;;;37.25;20.48;;;;;;;;;;5038015;28;20053;-71
2022/01/29 07:19:18;;;;;;;40.30;21.05;;;;;;;;;;5038277;28;20928;-71
2022/01/29 07:21:44;;;;;;;41.78;22.02;;;;;;;;;;5024016;28;20053;-71
2022/01/29 07:24:11;;;;;;;41.00;22.00;;;;;;;;;;5025929;28;20044;-71
2022/01/29 07:26:37;;;;;;;38.13;21.05;;;;;;;;;;5038537;28;20056;-71
2022/01/29 07:29:03;;;;;;;39.50;21.15;;;;;;;;;;5037631;28;20044;-71
2022/01/29 07:31:30;;;;;;;40.72;21.10;;;;;;;;;;5037809;28;20413;-71
2022/01/29 07:33:56;;;;;;;38.53;19.80;;;;;;;;;;5038048;28;20045;-71
2022/01/29 07:36:23;;;;;;;34.63;20.25;;;;;;;;;;5037865;28;20052;-71
2022/01/29 07:38:49;;;;;;;30.80;18.95;;;;;;;;;;5037656;28;20053;-70
2022/01/29 07:41:16;;;;;;;36.97;19.35;;;;;;;;;;5038093;28;20045;-71
2022/01/29 07:43:42;;;;;;;29.70;17.15;;;;;;;;;;5036926;28;20064;-70
2022/01/29 07:46:08;;;;;;;35.22;18.33;;;;;;;;;;5037970;28;20053;-71
2022/01/29 07:48:35;;;;;;;28.20;17.05;;;;;;;;;;5037273;28;20132;-71
2022/01/29 07:51:01;;;;;;;24.08;15.48;;;;;;;;;;5038002;28;20045;-71
2022/01/29 07:53:27;;;;;;;31.75;15.70;;;;;;;;;;5038038;28;20057;-71
2022/01/29 07:55:54;;;;;;;26.58;14.75;;;;;;;;;;5036984;28;20542;-71
2022/01/29 07:58:20;;;;;;;24.35;14.55;;;;;;;;;;5038007;28;20321;-71
2022/01/29 08:00:48;;;;;;;25.45;13.90;;;;;;;;;;5037179;28;20654;-71
2022/01/29 08:03:14;;;;;;;23.95;14.77;;;;;;;;;;5038187;28;20124;-71
2022/01/29 08:05:41;;;;;;;23.98;14.43;;;;;;;;;;5036639;28;20069;-71
2022/01/29 08:08:15;;;;;;;25.58;14.02;;;;;;;;;;5037304;28;20049;-71
2022/01/29 08:10:41;;;;;;;28.83;14.82;;;;;;;;;;5035461;28;20053;-71
2022/01/29 08:13:08;;;;;;;25.33;13.38;;;;;;;;;;5037883;28;20060;-70
2022/01/29 08:15:34;;;;;;;21.75;14.05;;;;;;;;;;5037485;28;20057;-70
2022/01/29 08:18:00;;;;;;;28.52;16.35;;;;;;;;;;5041377;28;20052;-70
2022/01/29 08:20:27;;;;;;;23.98;13.95;;;;;;;;;;5041420;28;20781;-71
2022/01/29 08:22:53;;;;;;;27.27;13.88;;;;;;;;;;5039024;28;20097;-71
2022/01/29 08:25:19;;;;;;;20.92;12.93;;;;;;;;;;5042041;28;20060;-71
2022/01/29 08:27:46;;;;;;;25.60;14.57;;;;;;;;;;5041430;28;20057;-71
2022/01/29 08:30:12;;;;;;;21.73;13.57;;;;;;;;;;5040543;28;20049;-71
2022/01/29 08:32:42;;;;;;;23.17;13.45;;;;;;;;;;5041450;28;20067;-71
2022/01/29 08:35:15;;;;;;;20.73;13.32;;;;;;;;;;5041627;28;20056;-71
2022/01/29 08:37:41;;;;;;;27.70;12.82;;;;;;;;;;5040996;28;20060;-71
2022/01/29 08:40:08;;;;;;;23.98;13.57;;;;;;;;;;5041017;28;20067;-71
2022/01/29 08:42:35;;;;;;;22.15;13.02;;;;;;;;;;5041463;28;20049;-71
2022/01/29 08:45:02;;;;;;;23.80;12.75;;;;;;;;;;5040744;28;20155;-71
2022/01/29 08:47:29;;;;;;;23.38;13.80;;;;;;;;;;5041959;28;20730;-71
2022/01/29 08:49:55;;;;;;;17.10;11.88;;;;;;;;;;5040793;28;20053;-71
2022/01/29 08:52:21;;;;;;;22.30;12.30;;;;;;;;;;5040883;28;20057;-71
2022/01/29 08:54:48;;;;;;;21.30;12.82;;;;;;;;;;5040835;28;20616;-71
2022/01/29 08:57:14;;;;;;;23.45;13.20;;;;;;;;;;5041333;28;20060;-71
2022/01/29 08:59:40;;;;;;;24.35;12.77;;;;;;;;;;5040496;28;20586;-71
2022/01/29 09:02:07;;;;;;;27.33;13.15;;;;;;;;;;5039570;28;20409;-71
2022/01/29 09:04:33;;;;;;;21.65;13.13;;;;;;;;;;5041179;28;20482;-71
2022/01/29 09:07:00;;;;;;;21.83;12.65;;;;;;;;;;5039891;28;20053;-71
2022/01/29 09:09:26;;;;;;;21.67;12.57;;;;;;;;;;5038616;28;20053;-71
2022/01/29 09:11:59;;;;;;;20.42;13.15;;;;;;;;;;5039829;28;20785;-71
2022/01/29 09:14:25;;;;;;;26.05;12.38;;;;;;;;;;5040484;28;20049;-71
2022/01/29 09:16:51;;;;;;;23.52;12.82;;;;;;;;;;5039753;28;20082;-71
2022/01/29 09:19:17;;;;;;;33.17;13.88;;;;;;;;;;5040370;28;20055;-71
2022/01/29 09:21:44;;;;;;;17.83;12.48;;;;;;;;;;5039543;28;20053;-71
2022/01/29 09:24:10;;;;;;;21.05;12.32;;;;;;;;;;5040481;28;20049;-72
2022/01/29 09:26:36;;;;;;;21.77;12.32;;;;;;;;;;5040428;28;20052;-71
2022/01/29 09:29:03;;;;;;;18.52;11.85;;;;;;;;;;5038769;28;20369;-70
2022/01/29 09:31:30;;;;;;;20.95;12.60;;;;;;;;;;5040465;28;20052;-71
2022/01/29 09:33:57;;;;;;;19.23;13.05;;;;;;;;;;5040121;28;20669;-70
2022/01/29 09:36:23;;;;;;;21.70;14.43;;;;;;;;;;5040517;28;20064;-70
2022/01/29 09:38:50;;;;;;;24.13;14.43;;;;;;;;;;5039851;28;20060;-70
2022/01/29 09:41:18;;;;;;;23.05;14.18;;;;;;;;;;5040037;28;20060;-70
2022/01/29 09:43:46;;;;;;;21.88;13.02;;;;;;;;;;5038895;28;20045;-70
2022/01/29 09:46:15;;;;;;;23.08;13.05;;;;;;;;;;5040095;28;20114;-69
2022/01/29 09:48:43;;;;;;;16.38;11.10;;;;;;;;;;5039748;28;20052;-70
2022/01/29 09:51:12;;;;;;;22.38;12.70;;;;;;;;;;5039531;28;20055;-69
2022/01/29 09:53:42;;;;;;;14.23;10.73;;;;;;;;;;5040337;28;20508;-70
2022/01/29 09:56:09;;;;;;;19.98;10.65;;;;;;;;;;5039521;28;20068;-70
2022/01/29 09:58:36;;;;;;;15.70;10.95;;;;;;;;;;5039359;28;20053;-70
2022/01/29 10:01:03;;;;;;;14.65;10.20;;;;;;;;;;5039551;28;20053;-71
2022/01/29 10:03:29;;;;;;;16.75;9.93;;;;;;;;;;5039315;28;20726;-72
2022/01/29 10:06:00;;;;;;;19.30;8.68;;;;;;;;;;5038773;28;20080;-71
2022/01/29 10:08:27;;;;;;;14.60;9.95;;;;;;;;;;5039436;28;20049;-71
2022/01/29 10:10:55;;;;;;;14.13;8.88;;;;;;;;;;5037045;28;20049;-71
2022/01/29 10:13:30;;;;;;;15.25;9.20;;;;;;;;;;5039602;28;20853;-71
2022/01/29 10:16:12;;;;;;;12.75;8.60;;;;;;;;;;5039702;28;20057;-71
2022/01/29 10:18:39;;;;;;;14.73;8.02;;;;;;;;;;5039851;28;20053;-71
2022/01/29 10:21:26;;;;;;;16.83;8.30;;;;;;;;;;5038785;28;20313;-70
2022/01/29 10:24:06;;;;;;;12.38;7.22;;;;;;;;;;5039200;28;20060;-70
2022/01/29 10:26:34;;;;;;;12.30;6.78;;;;;;;;;;5020572;28;20056;-71
2022/01/29 10:29:01;;;;;;;10.93;6.63;;;;;;;;;;5036882;28;20060;-71
2022/01/29 10:31:40;;;;;;;11.88;6.07;;;;;;;;;;5039686;28;20052;-71
2022/01/29 10:34:16;;;;;;;9.75;6.20;;;;;;;;;;5039747;28;20113;-71
2022/01/29 10:36:42;;;;;;;12.85;7.43;;;;;;;;;;5037392;28;20045;-70
2022/01/29 10:39:09;;;;;;;12.55;7.20;;;;;;;;;;5039799;28;20055;-71
2022/01/29 10:41:35;;;;;;;12.70;6.70;;;;;;;;;;5039252;28;20053;-70
2022/01/29 10:44:19;;;;;;;11.32;7.38;;;;;;;;;;5038663;28;20406;-71
2022/01/29 10:46:46;;;;;;;9.73;5.63;;;;;;;;;;5039373;28;20049;-71
2022/01/29 10:49:27;;;;;;;10.65;5.70;;;;;;;;;;5038869;28;20055;-70
2022/01/29 10:52:06;;;;;;;9.65;5.90;;;;;;;;;;5038469;28;20099;-69
2022/01/29 10:54:43;;;;;;;11.32;5.47;;;;;;;;;;5039025;28;20071;-70
2022/01/29 10:57:18;;;;;;;12.30;5.75;;;;;;;;;;5018419;28;20064;-70
2022/01/29 10:59:48;;;;;;;9.13;5.13;;;;;;;;;;5018733;28;20045;-70
2022/01/29 11:02:15;;;;;;;10.38;5.25;;;;;;;;;;5018434;28;20057;-70
2022/01/29 11:04:42;;;;;;;10.45;5.32;;;;;;;;;;5018010;28;20056;-71
2022/01/29 11:07:15;;;;;;;11.05;5.15;;;;;;;;;;5018914;28;20366;-70
2022/01/29 11:09:43;;;;;;;8.35;3.95;;;;;;;;;;5015937;28;20049;-71
2022/01/29 11:12:11;;;;;;;5.43;3.70;;;;;;;;;;5018283;28;20049;-70
2022/01/29 11:14:38;;;;;;;7.13;4.10;;;;;;;;;;5023489;28;20053;-70
2022/01/29 11:17:05;;;;;;;9.68;3.50;;;;;;;;;;5026703;28;20146;-70
2022/01/29 11:19:32;;;;;;;7.10;3.35;;;;;;;;;;5037649;28;20063;-69
2022/01/29 11:22:01;;;;;;;8.07;3.55;;;;;;;;;;5037540;28;20421;-69
2022/01/29 11:24:32;;;;;;;10.18;3.38;;;;;;;;;;5039058;28;20059;-70
2022/01/29 11:26:58;;;;;;;7.13;3.20;;;;;;;;;;5037480;28;20060;-70
2022/01/29 11:29:31;;;;;;;6.95;3.35;;;;;;;;;;5037684;28;20095;-69
2022/01/29 11:32:17;;;;;;;6.78;2.88;;;;;;;;;;5037886;28;20053;-69
2022/01/29 11:34:59;;;;;;;11.63;3.30;;;;;;;;;;5037326;28;20223;-69
2022/01/29 11:37:44;;;;;;;5.95;3.45;;;;;;;;;;5031801;28;20156;-69
2022/01/29 11:40:12;;;;;;;7.45;3.30;;;;;;;;;;5037219;28;20049;-69
2022/01/29 11:42:50;;;;;;;9.23;3.38;;;;;;;;;;5037790;28;20521;-69
2022/01/29 11:45:16;;;;;;;;;;;;;;;;;;5038441;28;20049;-69
2022/01/29 11:47:43;;;;;;;5.50;2.65;;;;;;;;;;5037248;28;19971;-69
2022/01/29 11:50:18;;;;;;;7.07;3.58;;;;;;;;;;5037322;28;20053;-69
2022/01/29 11:52:57;;;;;;;7.40;2.78;;;;;;;;;;5041895;28;20453;-69
2022/01/29 11:55:33;;;;;;;6.43;2.53;;;;;;;;;;5060526;28;20048;-69
2022/01/29 11:58:18;;;;;;;6.05;2.47;;;;;;;;;;5054393;28;20053;-68
2022/01/29 12:00:45;;;;;;;5.97;2.20;;;;;;;;;;5051310;28;20048;-69
2022/01/29 12:03:31;;;;;;;4.45;1.67;;;;;;;;;;5056473;28;20051;-69
2022/01/29 12:09:04;;;;;;;7.38;2.00;;;;;;;;;;5061269;28;20147;-69
2022/01/29 12:11:32;;;;;;;8.45;2.22;;;;;;;;;;5061515;28;20052;-69
2022/01/29 12:14:13;;;;;;;8.15;1.73;;;;;;;;;;5060862;28;20294;-68
2022/01/29 12:16:47;;;;;;;7.65;2.17;;;;;;;;;;5061046;28;20062;-69
2022/01/29 12:19:32;;;;;;;5.43;1.85;;;;;;;;;;5060721;28;20052;-69
2022/01/29 12:21:59;;;;;;;6.00;1.70;;;;;;;;;;5081307;28;20806;-68
2022/01/29 12:24:25;;;;;;;7.82;2.20;;;;;;;;;;5077652;28;20051;-68
2022/01/29 12:26:52;;;;;;;5.20;1.55;;;;;;;;;;5060160;28;20048;-68
2022/01/29 12:29:20;;;;;;;5.28;1.42;;;;;;;;;;5061176;28;20571;-68
2022/01/29 12:31:50;;;;;;;2.38;1.52;;;;;;;;;;5060107;28;20048;-69
2022/01/29 12:34:16;;;;;;;6.05;1.70;;;;;;;;;;5061167;28;20048;-70
2022/01/29 12:36:42;;;;;;;9.88;2.30;;;;;;;;;;5059912;28;20467;-68
2022/01/29 12:39:10;;;;;;;5.82;1.77;;;;;;;;;;5059997;28;20728;-69
2022/01/29 12:41:39;;;;;;;7.57;2.00;;;;;;;;;;5060264;28;20700;-68
2022/01/29 12:44:08;;;;;;;4.03;1.55;;;;;;;;;;5060228;28;20048;-68
2022/01/29 12:46:35;;;;;;;5.15;1.52;;;;;;;;;;5060480;28;20048;-69
2022/01/29 12:49:10;;;;;;;5.88;1.52;;;;;;;;;;5060106;28;20072;-69
2022/01/29 12:51:49;;;;;;;5.28;1.40;;;;;;;;;;5060333;28;20071;-69
2022/01/29 12:54:16;;;;;;;4.03;1.60;;;;;;;;;;5060429;28;20859;-68
2022/01/29 12:56:42;;;;;;;6.65;1.65;;;;;;;;;;5077682;28;20685;-69
2022/01/29 12:59:10;;;;;;;6.13;1.80;;;;;;;;;;5081307;28;20052;-69
2022/01/29 13:01:37;;;;;;;8.27;2.07;;;;;;;;;;5080566;28;20056;-68
2022/01/29 13:04:05;;;;;;;4.88;1.65;;;;;;;;;;5078866;28;20497;-68
2022/01/29 13:06:31;;;;;;;7.68;2.20;;;;;;;;;;5081008;28;20046;-68
2022/01/29 13:09:10;;;;;;;7.30;1.80;;;;;;;;;;5080676;28;20048;-69
2022/01/29 13:11:37;;;;;;;4.47;1.63;;;;;;;;;;5080290;28;20177;-68
2022/01/29 13:14:10;;;;;;;4.45;1.80;;;;;;;;;;5079986;28;20052;-68
2022/01/29 13:16:36;;;;;;;7.60;1.73;;;;;;;;;;5080423;28;20440;-68
2022/01/29 13:19:03;;;;;;;8.82;2.10;;;;;;;;;;5079539;28;20173;-68
2022/01/29 13:21:30;;;;;;;7.70;1.77;;;;;;;;;;5079387;28;20051;-69
2022/01/29 13:23:57;;;;;;;7.18;1.83;;;;;;;;;;5059772;28;20481;-68
2022/01/29 13:26:29;;;;;;;9.05;1.98;;;;;;;;;;5059318;28;20477;-68
2022/01/29 13:29:08;;;;;;;6.72;1.88;;;;;;;;;;5059216;28;20060;-69
2022/01/29 13:31:45;;;;;;;5.03;1.80;;;;;;;;;;5059590;28;20063;-68
2022/01/29 13:34:25;;;;;;;6.63;2.40;;;;;;;;;;5059571;28;20048;-68
2022/01/29 13:36:52;;;;;;;7.15;2.22;;;;;;;;;;5059100;28;20819;-67
2022/01/29 13:39:19;;;;;;;8.55;2.30;;;;;;;;;;5059409;28;20048;-68
2022/01/29 13:41:45;;;;;;;9.00;2.70;;;;;;;;;;5058836;28;20126;-68
2022/01/29 13:44:12;;;;;;;4.70;1.95;;;;;;;;;;5059277;28;20052;-68
2022/01/29 13:46:38;;;;;;;9.77;2.20;;;;;;;;;;5059039;28;20539;-67
2022/01/29 13:49:07;;;;;;;6.07;2.00;;;;;;;;;;5059675;28;20152;-68
2022/01/29 13:51:39;;;;;;;7.25;2.28;;;;;;;;;;5059468;28;20466;-67
2022/01/29 13:54:06;;;;;;;5.43;2.00;;;;;;;;;;5060032;28;20515;-68
2022/01/29 13:56:33;;;;;;;5.45;2.00;;;;;;;;;;5059483;28;20060;-68
2022/01/29 13:59:02;;;;;;;6.53;1.98;;;;;;;;;;5059999;28;20067;-67
2022/01/29 14:01:32;;;;;;;7.13;2.22;;;;;;;;;;5059364;28;20060;-68
2022/01/29 14:03:59;;;;;;;8.75;2.88;;;;;;;;;;5059948;28;20060;-69
2022/01/29 14:06:38;;;;;;;9.25;2.40;;;;;;;;;;5060212;28;20048;-68
2022/01/29 14:09:14;;;;;;;5.35;2.25;;;;;;;;;;5057200;28;20515;-67
2022/01/29 14:11:53;;;;;;;9.93;2.17;;;;;;;;;;5059220;28;20052;-67
2022/01/29 14:14:19;;;;;;;;;;;;;;;;;;5059850;28;20048;-68
2022/01/29 14:16:45;;;;;;;6.90;2.28;;;;;;;;;;5058634;28;19924;-67
2022/01/29 14:19:12;;;;;;;6.85;2.20;;;;;;;;;;5059417;28;20056;-67
2022/01/29 14:21:39;;;;;;;6.45;2.00;;;;;;;;;;5058937;28;20084;-68
2022/01/29 14:24:05;;;;;;;6.13;2.17;;;;;;;;;;5058575;28;20049;-68
2022/01/29 14:26:32;;;;;;;6.00;2.20;;;;;;;;;;5059758;28;20048;-68
2022/01/29 14:28:59;;;;;;;5.90;2.30;;;;;;;;;;5059564;28;20058;-67
2022/01/29 14:31:25;;;;;;;10.40;1.88;;;;;;;;;;5058979;28;20482;-68
2022/01/29 14:33:51;;;;;;;6.75;2.03;;;;;;;;;;5058255;28;20135;-67
2022/01/29 14:36:18;;;;;;;7.68;2.45;;;;;;;;;;5059065;28;20512;-67
2022/01/29 14:38:44;;;;;;;11.18;2.13;;;;;;;;;;5058159;28;20054;-67
2022/01/29 14:41:11;;;;;;;7.38;2.42;;;;;;;;;;5058865;28;20056;-68
2022/01/29 14:43:37;;;;;;;9.48;2.63;;;;;;;;;;5058261;28;20398;-68
2022/01/29 14:46:04;;;;;;;9.85;2.00;;;;;;;;;;5039777;28;20063;-67